Time;durP1;ratioP1;P1;durP2;ratioP2;P2;SDS_P1;SDS_P2;PMS_P1;PMS_P2;Temp;Humidity;BMP_temperature;BMP_pressure;BME280_temperature;BME280_humidity;BME280_pressure;Samples;Min_cycle;Max_cycle;Signal;HPM_P1;HPM_P2
2022/01/19 00:02:16;;;;;;;8.80;4.80;;;;;;;-2.84;80.96;101016.22;4975272;28;20059;-69
2022/01/19 00:04:42;;;;;;;8.40;4.80;;;;;;;-2.86;81.37;101005.00;4976561;28;20054;-67
2022/01/19 00:07:07;;;;;;;4.97;4.00;;;;;;;-2.84;81.69;101011.00;4976232;28;20129;-68
2022/01/19 00:09:33;;;;;;;7.17;4.53;;;;;;;-2.81;81.41;100995.22;4975921;28;20043;-67
2022/01/19 00:11:58;;;;;;;10.53;4.43;;;;;;;-2.69;81.00;101008.59;4976005;28;20039;-68
2022/01/19 00:14:24;;;;;;;6.37;3.77;;;;;;;-2.73;80.16;100994.00;4976055;28;20046;-67
2022/01/19 00:16:49;;;;;;;10.53;4.00;;;;;;;-2.71;80.23;101008.66;4976127;28;20043;-68
2022/01/19 00:19:15;;;;;;;10.23;4.87;;;;;;;-2.71;80.08;100998.22;4976065;28;20117;-67
2022/01/19 00:21:40;;;;;;;5.50;3.80;;;;;;;-2.58;80.36;101012.38;4974626;28;20030;-67
2022/01/19 00:24:06;;;;;;;7.90;4.20;;;;;;;-2.65;80.48;100990.09;4975724;28;20504;-70
2022/01/19 00:26:32;;;;;;;5.77;3.90;;;;;;;-2.55;79.91;101003.56;4974887;28;20042;-68
2022/01/19 00:28:59;;;;;;;6.63;4.47;;;;;;;-2.56;79.91;100996.66;4976015;28;20510;-67
2022/01/19 00:31:24;;;;;;;4.13;3.22;;;;;;;-2.54;80.17;100992.22;4976021;28;20441;-67
2022/01/19 00:33:50;;;;;;;7.33;3.30;;;;;;;-2.53;80.22;100993.91;4975575;28;20039;-68
2022/01/19 00:36:15;;;;;;;7.30;3.50;;;;;;;-2.67;80.51;100959.81;4975784;28;20035;-67
2022/01/19 00:38:41;;;;;;;4.60;3.60;;;;;;;-2.51;80.17;100989.47;4975680;28;20035;-68
2022/01/19 00:41:06;;;;;;;10.83;4.03;;;;;;;-2.54;80.72;100974.81;4974660;28;20394;-68
2022/01/19 00:43:35;;;;;;;7.73;3.50;;;;;;;-2.47;80.62;100983.19;4976211;28;20420;-65
2022/01/19 00:46:02;;;;;;;6.95;3.50;;;;;;;-2.51;80.02;100976.44;4976556;28;20150;-64
2022/01/19 00:48:28;;;;;;;6.75;3.75;;;;;;;-2.51;80.44;100961.63;4976540;28;20117;-65
2022/01/19 00:50:55;;;;;;;3.55;3.03;;;;;;;-2.47;80.35;100972.75;4975641;28;20487;-65
2022/01/19 00:53:20;;;;;;;5.43;3.58;;;;;;;-2.38;80.10;100964.47;4975254;28;20138;-65
2022/01/19 00:55:46;;;;;;;4.60;3.23;;;;;;;-2.34;80.30;100958.16;4975453;28;20034;-66
2022/01/19 00:58:11;;;;;;;6.23;3.53;;;;;;;-2.36;80.69;100944.38;4990241;28;20184;-66
2022/01/19 01:00:37;;;;;;;16.13;4.87;;;;;;;-2.34;79.98;100941.69;4975539;28;20043;-66
2022/01/19 01:03:04;;;;;;;7.63;3.43;;;;;;;-2.40;80.11;100921.97;4975232;28;20038;-66
2022/01/19 01:05:31;;;;;;;10.45;4.43;;;;;;;-2.28;80.62;100937.03;4974941;28;20077;-65
2022/01/19 01:07:57;;;;;;;6.55;3.55;;;;;;;-2.27;80.04;100937.88;4974844;28;20053;-65
2022/01/19 01:10:23;;;;;;;7.87;4.33;;;;;;;-2.34;80.43;100926.88;4975306;28;20114;-65
2022/01/19 01:12:51;;;;;;;4.60;3.50;;;;;;;-2.28;80.79;100937.03;4975200;28;20035;-65
2022/01/19 01:15:36;;;;;;;3.78;2.85;;;;;;;-2.26;80.97;100924.75;4975003;28;20126;-65
2022/01/19 01:20:31;;;;;;;5.97;3.72;;;;;;;-2.23;80.38;100919.38;4974717;28;20066;-65
2022/01/19 01:22:57;;;;;;;7.20;3.67;;;;;;;-2.23;81.23;100915.91;4974873;28;20047;-65
2022/01/19 01:25:23;;;;;;;10.87;4.27;;;;;;;-2.28;81.88;100908.31;4975347;28;20047;-65
2022/01/19 01:27:49;;;;;;;7.33;3.67;;;;;;;-2.24;81.36;100896.81;4975005;28;20046;-65
2022/01/19 01:30:14;;;;;;;9.53;3.97;;;;;;;-2.18;81.17;100900.88;4974812;28;20118;-66
2022/01/19 01:32:40;;;;;;;7.20;4.40;;;;;;;-2.24;81.55;100886.38;4974530;28;20043;-66
2022/01/19 01:35:06;;;;;;;9.53;4.30;;;;;;;-2.27;81.90;100873.50;4974634;28;20039;-67
2022/01/19 01:37:31;;;;;;;7.27;4.20;;;;;;;-2.10;82.11;100890.88;4974184;28;20049;-65
2022/01/19 01:39:57;;;;;;;10.47;3.90;;;;;;;-2.03;81.93;100888.78;4974571;28;20130;-67
2022/01/19 01:42:24;;;;;;;9.13;4.93;;;;;;;-2.07;82.16;100882.88;4974647;28;20046;-67
2022/01/19 01:44:52;;;;;;;7.38;4.10;;;;;;;-2.11;82.86;100875.31;4973268;28;20094;-65
2022/01/19 01:47:19;;;;;;;10.60;4.90;;;;;;;-2.13;83.22;100877.16;4974365;28;20498;-65
2022/01/19 01:55:09;;;;;;;11.10;4.50;;;;;;;-2.10;83.94;100863.94;4974409;28;20085;-65
2022/01/19 01:57:34;;;;;;;6.57;5.03;;;;;;;-2.06;83.79;100874.13;4974126;28;20066;-66
2022/01/19 02:00:00;;;;;;;9.30;4.40;;;;;;;-2.06;83.61;100874.13;4974042;28;20093;-66
2022/01/19 02:02:26;;;;;;;7.07;5.30;;;;;;;-2.06;84.08;100862.84;4974185;28;20621;-65
2022/01/19 02:04:53;;;;;;;10.87;5.40;;;;;;;-1.96;84.18;100874.50;4973913;28;20377;-67
2022/01/19 02:07:33;;;;;;;7.80;5.38;;;;;;;-2.04;84.42;100855.78;4974084;28;20387;-65
2022/01/19 02:10:02;;;;;;;10.35;4.82;;;;;;;-2.03;85.27;100857.47;4973868;28;20034;-66
2022/01/19 02:23:46;;;;;;;10.38;5.10;;;;;;;-1.92;85.89;100847.31;4951567;28;20054;-66
2022/01/19 02:26:19;;;;;;;7.75;6.07;;;;;;;-1.93;85.65;100827.38;4973888;28;20038;-66
2022/01/19 02:29:01;;;;;;;8.30;5.53;;;;;;;-1.95;85.67;100821.41;4973604;28;20034;-66
2022/01/19 02:31:55;;;;;;;12.90;5.70;;;;;;;-1.97;85.77;100810.19;4973772;28;20471;-65
2022/01/19 02:42:51;;;;;;;11.93;6.78;;;;;;;-1.70;85.78;100823.53;4974056;28;20278;-65
2022/01/19 02:50:26;;;;;;;10.80;5.00;;;;;;;-1.59;85.77;100805.50;4972648;28;20410;-65
2022/01/19 02:52:52;;;;;;;9.70;6.17;;;;;;;-1.58;85.59;100807.19;4973413;28;20274;-67
2022/01/19 02:55:18;;;;;;;9.63;6.53;;;;;;;-1.50;85.37;100815.44;4956116;28;20122;-66
2022/01/19 02:57:46;;;;;;;11.17;6.13;;;;;;;-1.44;85.47;100799.44;4973389;28;20437;-66
2022/01/19 03:08:47;;;;;;;14.20;8.53;;;;;;;-1.37;85.14;100786.88;4972586;28;20373;-65
2022/01/19 03:11:16;;;;;;;11.13;6.43;;;;;;;-1.38;84.95;100787.81;4973559;28;20274;-65
2022/01/19 03:13:42;;;;;;;8.90;6.05;;;;;;;-1.31;85.22;100797.81;4973490;28;20271;-64
2022/01/19 03:16:08;;;;;;;9.47;5.90;;;;;;;-1.28;85.34;100807.25;4973263;28;20046;-64
2022/01/19 03:18:34;;;;;;;13.60;6.40;;;;;;;-1.26;85.87;100802.78;4973041;28;20262;-64
2022/01/19 03:21:00;;;;;;;10.97;6.63;;;;;;;-1.27;86.25;100796.72;4973169;28;20039;-64
2022/01/19 03:23:25;;;;;;;17.97;7.57;;;;;;;-1.20;85.87;100806.81;4971833;28;20045;-67
2022/01/19 03:25:53;;;;;;;18.10;7.80;;;;;;;-1.13;86.58;100808.19;4972002;28;20041;-65
2022/01/19 03:28:18;;;;;;;10.43;5.83;;;;;;;-1.09;85.95;100802.69;4973112;28;20063;-65
2022/01/19 03:30:46;;;;;;;11.10;6.47;;;;;;;-1.11;87.10;100791.47;4973077;28;20742;-65
2022/01/19 03:33:12;;;;;;;8.47;6.30;;;;;;;-1.07;86.78;100785.13;4972965;28;20048;-64
2022/01/19 03:35:38;;;;;;;12.20;5.80;;;;;;;-1.01;86.58;100771.72;4972789;28;20293;-66
2022/01/19 03:38:06;;;;;;;10.13;5.53;;;;;;;-0.94;87.06;100766.97;4972906;28;20381;-66
2022/01/19 03:40:31;;;;;;;16.60;4.97;;;;;;;-0.89;87.25;100757.06;4972952;28;20730;-64
2022/01/19 03:42:58;;;;;;;13.47;5.70;;;;;;;-0.95;86.66;100734.75;4972698;28;20274;-64
2022/01/19 03:45:23;;;;;;;10.80;6.07;;;;;;;-0.89;86.97;100740.56;4972809;28;20405;-65
2022/01/19 03:47:56;;;;;;;9.67;5.73;;;;;;;-0.90;87.24;100726.63;4971692;28;20468;-66
2022/01/19 03:50:21;;;;;;;7.47;5.87;;;;;;;-0.90;87.18;100715.34;4972869;28;20031;-65
2022/01/19 03:52:47;;;;;;;12.50;5.73;;;;;;;-0.87;87.66;100716.00;4972934;28;20301;-65
2022/01/19 03:55:13;;;;;;;9.83;5.50;;;;;;;-0.87;87.42;100704.69;4972719;28;20171;-66
2022/01/19 03:57:38;;;;;;;11.73;6.40;;;;;;;-0.87;87.36;100694.25;4971887;28;20034;-65
2022/01/19 04:00:07;;;;;;;9.47;5.80;;;;;;;-0.88;87.29;100677.72;4973404;28;20349;-65
2022/01/19 04:02:34;;;;;;;10.25;5.18;;;;;;;-0.81;87.49;100678.22;4976281;28;20059;-66
2022/01/19 04:05:09;;;;;;;;;;;;;;;-0.74;87.23;100680.34;4976480;28;20539;-67
2022/01/19 04:07:36;;;;;;;8.13;4.90;;;;;;;-0.75;86.85;100670.81;4976350;28;19945;-65
2022/01/19 04:10:04;;;;;;;10.83;4.77;;;;;;;-0.73;87.14;100666.34;4976590;28;20658;-64
2022/01/19 04:13:10;;;;;;;10.97;4.70;;;;;;;-0.79;86.75;100650.19;4975746;28;20266;-66
2022/01/19 04:15:21;;;;;;;6.00;4.83;;;;;;;-0.76;86.90;100650.00;4975500;28;20397;-68
2022/01/19 04:17:53;;;;;;;9.97;5.27;;;;;;;-0.64;86.79;100665.78;4974906;28;20369;-65
2022/01/19 04:20:25;;;;;;;9.07;4.73;;;;;;;-0.65;86.35;100652.78;4976437;28;20414;-64
2022/01/19 04:22:51;;;;;;;12.93;5.67;;;;;;;-0.66;86.31;100645.88;4975902;28;20381;-63
2022/01/19 04:25:17;;;;;;;9.30;4.67;;;;;;;-0.65;86.81;100634.47;4975886;28;20801;-65
2022/01/19 04:27:43;;;;;;;11.03;4.97;;;;;;;-0.60;86.68;100632.41;4975806;28;20039;-66
2022/01/19 04:30:12;;;;;;;6.90;4.63;;;;;;;-0.63;86.46;100635.22;4976158;28;20043;-66
2022/01/19 04:35:25;;;;;;;10.43;4.63;;;;;;;-0.53;85.96;100638.97;4975608;28;20279;-69
2022/01/19 05:07:34;;;;;;;9.67;5.13;;;;;;;-0.57;85.67;100634.88;4964092;28;20051;-66
2022/01/19 05:15:27;;;;;;;6.70;4.30;;;;;;;-0.47;85.01;100625.50;4975039;28;20305;-65
2022/01/19 05:17:53;;;;;;;6.80;3.80;;;;;;;-0.46;85.23;100629.81;4973663;28;20274;-67
2022/01/19 05:20:18;;;;;;;9.23;3.97;;;;;;;-0.45;84.90;100631.50;4974946;28;20050;-64
2022/01/19 05:22:44;;;;;;;11.47;4.43;;;;;;;-0.45;84.75;100607.94;4973826;28;20031;-62
2022/01/19 05:25:09;;;;;;;8.90;4.00;;;;;;;-0.38;84.76;100619.69;4974656;28;20501;-67
2022/01/19 05:27:35;;;;;;;10.80;3.80;;;;;;;-0.37;84.44;100624.00;4990417;28;20023;-64
2022/01/19 05:30:00;;;;;;;8.63;3.90;;;;;;;-0.40;84.29;100607.66;4994130;28;20129;-62
2022/01/19 05:32:26;;;;;;;12.73;4.33;;;;;;;-0.37;84.59;100610.91;4978465;28;20049;-62
2022/01/19 05:34:51;;;;;;;8.83;3.90;;;;;;;-0.34;84.27;100615.94;4974225;28;20047;-61
2022/01/19 05:37:17;;;;;;;10.80;3.93;;;;;;;-0.38;84.66;100603.16;4973221;28;20122;-63
2022/01/19 05:39:43;;;;;;;6.80;3.77;;;;;;;-0.32;84.42;100618.47;4974553;28;20164;-66
2022/01/19 05:42:14;;;;;;;8.00;2.93;;;;;;;-0.41;84.42;100600.72;4973130;28;20050;-65
2022/01/19 05:44:45;;;;;;;6.47;3.20;;;;;;;-0.31;84.53;100618.38;4974458;28;20374;-63
2022/01/19 05:47:12;;;;;;;3.37;2.90;;;;;;;-0.34;84.10;100605.47;4974103;28;20281;-66
2022/01/19 05:49:38;;;;;;;8.40;3.70;;;;;;;-0.27;84.26;100616.41;4973332;28;20278;-67
2022/01/19 05:52:06;;;;;;;6.83;3.30;;;;;;;-0.24;84.66;100607.53;4989226;28;20796;-66
2022/01/19 05:54:33;;;;;;;9.40;3.67;;;;;;;-0.29;84.46;100592.09;4973956;28;20758;-61
2022/01/19 05:56:59;;;;;;;10.63;3.30;;;;;;;-0.24;84.28;100594.44;4974066;28;20262;-62
2022/01/19 05:59:25;;;;;;;10.00;3.53;;;;;;;-0.20;84.08;100596.78;4973591;28;20571;-61
2022/01/19 06:01:50;;;;;;;6.27;3.03;;;;;;;-0.20;83.88;100595.94;4974170;28;20266;-61
2022/01/19 06:04:17;;;;;;;5.07;3.17;;;;;;;-0.20;84.32;100596.78;4974219;28;20069;-66
2022/01/19 06:06:43;;;;;;;6.70;3.20;;;;;;;-0.29;83.82;100567.72;4974149;28;20042;-65
2022/01/19 06:09:32;;;;;;;26.27;4.33;;;;;;;-0.21;84.36;100581.16;4973941;28;20341;-65
2022/01/19 06:11:54;;;;;;;7.23;3.00;;;;;;;-0.20;83.99;100590.69;4973654;28;20035;-68
2022/01/19 06:14:19;;;;;;;10.70;3.03;;;;;;;-0.22;84.27;100582.09;4972681;28;20288;-67
2022/01/19 06:16:45;;;;;;;9.57;3.13;;;;;;;-0.21;84.06;100586.41;4974063;28;20034;-69
2022/01/19 06:19:11;;;;;;;9.23;3.37;;;;;;;-0.31;83.99;100571.25;4973618;28;20050;-69
2022/01/19 06:21:36;;;;;;;11.17;2.93;;;;;;;-0.22;84.29;100592.56;4975073;28;20286;-73
2022/01/19 06:24:02;;;;;;;7.00;3.10;;;;;;;-0.24;84.00;100583.97;4958245;28;20060;-66
2022/01/19 06:26:28;;;;;;;9.93;3.30;;;;;;;-0.23;84.12;100585.66;4974728;28;20034;-66
2022/01/19 06:28:53;;;;;;;6.77;2.93;;;;;;;-0.29;84.13;100575.56;4973302;28;20057;-69
2022/01/19 06:31:19;;;;;;;7.70;4.33;;;;;;;-0.27;83.64;100577.16;4973830;28;20085;-68
2022/01/19 06:33:44;;;;;;;8.80;4.17;;;;;;;-0.15;83.89;100593.84;4973629;28;20133;-65
2022/01/19 06:36:10;;;;;;;9.27;4.63;;;;;;;-0.23;83.83;100565.56;4974654;28;20442;-69
2022/01/19 06:38:35;;;;;;;8.67;3.00;;;;;;;-0.19;83.96;100569.66;4973434;28;20046;-70
2022/01/19 06:41:01;;;;;;;11.30;3.87;;;;;;;-0.34;83.62;100540.06;4978411;28;20487;-70
2022/01/19 06:43:26;;;;;;;5.73;2.90;;;;;;;-0.17;83.61;100561.69;4982704;28;20487;-68
2022/01/19 06:45:54;;;;;;;7.33;3.20;;;;;;;-0.25;83.77;100536.03;4977095;28;20034;-69
2022/01/19 06:48:20;;;;;;;7.80;3.47;;;;;;;-0.04;83.51;100565.19;4974553;28;20035;-70
2022/01/19 06:50:45;;;;;;;12.63;4.77;;;;;;;-0.11;83.47;100558.69;4974404;28;20263;-72
2022/01/19 06:53:11;;;;;;;9.93;3.30;;;;;;;-0.10;83.89;100550.72;4973329;28;20053;-70
2022/01/19 06:55:36;;;;;;;10.50;2.87;;;;;;;-0.32;83.93;100517.25;4972026;28;20125;-70
2022/01/19 06:58:02;;;;;;;14.83;5.63;;;;;;;-0.20;83.88;100533.94;4973480;28;20041;-72
2022/01/19 07:00:27;;;;;;;11.63;4.83;;;;;;;-0.12;83.74;100547.38;4973692;28;20050;-70
2022/01/19 07:02:53;;;;;;;8.53;3.63;;;;;;;-0.08;83.58;100548.84;4973497;28;20045;-74
2022/01/19 07:05:19;;;;;;;8.90;3.93;;;;;;;-0.13;83.51;100543.06;4973292;28;20097;-73
2022/01/19 07:07:44;;;;;;;6.47;3.03;;;;;;;-0.11;83.51;100551.66;4973237;28;20129;-72
2022/01/19 07:10:10;;;;;;;11.77;3.53;;;;;;;-0.12;83.62;100552.59;4973207;28;20396;-73
2022/01/19 07:12:36;;;;;;;10.40;4.23;;;;;;;-0.06;83.69;100562.69;4973487;28;20038;-70
2022/01/19 07:15:01;;;;;;;6.03;3.30;;;;;;;-0.08;83.32;100558.47;4973365;28;20038;-71
2022/01/19 07:17:29;;;;;;;7.50;4.20;;;;;;;-0.08;83.31;100554.09;4973392;28;20066;-67
2022/01/19 07:19:54;;;;;;;10.17;3.87;;;;;;;-0.17;83.88;100538.16;4973154;28;20307;-69
2022/01/19 07:22:20;;;;;;;12.10;4.03;;;;;;;-0.13;83.65;100550.09;4973222;28;20514;-69
2022/01/19 07:24:45;;;;;;;7.03;3.30;;;;;;;-0.09;83.78;100547.16;4972948;28;20035;-70
2022/01/19 07:27:11;;;;;;;7.53;3.43;;;;;;;-0.15;83.35;100533.66;4973249;28;20049;-70
2022/01/19 07:29:36;;;;;;;13.83;3.30;;;;;;;-0.12;83.84;100546.53;4973251;28;20057;-71
2022/01/19 07:32:02;;;;;;;11.77;5.43;;;;;;;-0.18;83.80;100531.22;4972850;28;20072;-70
2022/01/19 07:34:29;;;;;;;8.50;3.37;;;;;;;-0.19;84.35;100526.94;4972997;28;20041;-70
2022/01/19 07:36:55;;;;;;;14.90;3.73;;;;;;;-0.14;83.93;100530.09;4976707;28;20041;-68
2022/01/19 07:39:22;;;;;;;6.27;3.50;;;;;;;-0.18;83.75;100505.91;4976587;28;20266;-67
2022/01/19 07:41:48;;;;;;;14.20;4.80;;;;;;;-0.11;84.35;100506.31;4977100;28;20270;-69
2022/01/19 07:44:14;;;;;;;9.37;3.93;;;;;;;-0.06;84.11;100509.47;4977167;28;20270;-68
2022/01/19 07:46:41;;;;;;;9.57;5.90;;;;;;;-0.07;83.79;100497.34;4976853;28;20603;-70
2022/01/19 07:49:06;;;;;;;11.13;3.87;;;;;;;-0.20;83.74;100465.91;4977380;28;20089;-71
2022/01/19 07:51:32;;;;;;;9.17;5.97;;;;;;;-0.03;83.87;100483.94;4976628;28;20778;-72
2022/01/19 07:53:57;;;;;;;9.40;5.33;;;;;;;-0.03;83.33;100483.94;4976647;28;20118;-74
2022/01/19 07:56:23;;;;;;;10.90;4.30;;;;;;;-0.01;84.03;100489.06;4975607;28;20081;-73
2022/01/19 07:58:48;;;;;;;8.27;4.53;;;;;;;-0.07;83.58;100471.16;4977092;28;20494;-73
2022/01/19 08:01:14;;;;;;;10.17;4.17;;;;;;;-0.13;83.37;100458.47;4977028;28;20038;-72
2022/01/19 08:03:42;;;;;;;9.33;5.23;;;;;;;0.09;83.60;100487.53;4976425;28;20035;-72
2022/01/19 08:06:08;;;;;;;8.10;4.78;;;;;;;0.09;83.16;100477.06;4976916;28;20046;-70
2022/01/19 08:08:35;;;;;;;7.30;4.07;;;;;;;0.15;83.16;100475.81;4976684;28;20046;-71
2022/01/19 08:11:01;;;;;;;10.47;5.27;;;;;;;0.16;82.92;100473.09;4975598;28;20039;-71
2022/01/19 08:13:27;;;;;;;11.03;5.30;;;;;;;0.05;82.87;100444.19;4976570;28;20369;-73
2022/01/19 08:15:52;;;;;;;11.67;5.53;;;;;;;0.10;82.77;100446.47;4976261;28;20380;-69
2022/01/19 08:18:18;;;;;;;11.20;5.17;;;;;;;0.11;82.98;100442.91;4991701;28;20125;-71
2022/01/19 08:20:43;;;;;;;14.57;6.67;;;;;;;0.17;82.53;100445.13;4976340;28;20506;-67
2022/01/19 08:23:10;;;;;;;9.03;4.87;;;;;;;0.21;81.98;100447.41;4976436;28;20082;-70
2022/01/19 08:25:36;;;;;;;7.03;4.83;;;;;;;0.32;82.10;100445.88;4976355;28;20030;-71
2022/01/19 08:28:02;;;;;;;8.20;4.47;;;;;;;0.26;81.95;100442.69;4978390;28;20761;-69
2022/01/19 08:30:27;;;;;;;9.07;4.60;;;;;;;0.29;81.81;100439.91;4977079;28;20494;-70
2022/01/19 08:32:53;;;;;;;9.93;4.20;;;;;;;0.25;81.84;100404.34;4976456;28;20277;-70
2022/01/19 08:35:20;;;;;;;12.17;5.20;;;;;;;0.23;81.20;100390.53;4976243;28;20483;-69
2022/01/19 08:37:46;;;;;;;11.10;4.80;;;;;;;0.50;81.08;100423.63;4976035;28;20066;-70
2022/01/19 08:40:13;;;;;;;6.00;4.27;;;;;;;0.54;80.84;100422.47;4976337;28;20356;-68
2022/01/19 08:42:39;;;;;;;6.33;4.50;;;;;;;0.37;80.78;100394.81;4974820;28;20027;-69
2022/01/19 08:45:07;;;;;;;7.47;4.83;;;;;;;0.54;80.64;100425.91;4975831;28;20366;-69
2022/01/19 08:47:36;;;;;;;11.38;5.18;;;;;;;0.47;80.51;100413.34;4974640;28;20273;-69
2022/01/19 08:50:04;;;;;;;10.13;5.53;;;;;;;0.57;80.95;100415.22;4975635;28;20043;-69
2022/01/19 08:52:29;;;;;;;12.75;4.88;;;;;;;0.56;80.25;100396.97;4975426;28;20034;-70
2022/01/19 08:54:55;;;;;;;11.37;5.43;;;;;;;0.50;80.27;100381.69;4974666;28;20391;-71
2022/01/19 08:57:21;;;;;;;8.37;5.33;;;;;;;0.61;80.33;100408.84;4974891;28;20077;-71
2022/01/19 08:59:47;;;;;;;13.43;6.87;;;;;;;0.49;80.29;100380.88;4975896;28;20077;-71
2022/01/19 09:02:12;;;;;;;12.67;6.87;;;;;;;0.60;80.43;100398.47;4975263;28;20309;-76
2022/01/19 09:04:40;;;;;;;13.77;6.40;;;;;;;0.54;80.53;100380.53;4975107;28;20059;-69
2022/01/19 09:07:10;;;;;;;13.93;6.57;;;;;;;0.59;80.43;100375.84;4975344;28;20100;-70
2022/01/19 09:09:36;;;;;;;11.47;6.70;;;;;;;0.64;80.42;100378.97;4975646;28;20689;-70
2022/01/19 09:12:02;;;;;;;16.67;7.57;;;;;;;0.39;79.82;100348.41;4975514;28;20070;-74
2022/01/19 09:14:30;;;;;;;11.90;7.13;;;;;;;0.56;80.26;100376.84;4975297;28;20179;-70
2022/01/19 09:16:55;;;;;;;11.23;7.77;;;;;;;0.58;79.78;100371.53;4974929;28;20693;-68
2022/01/19 09:19:21;;;;;;;14.67;8.50;;;;;;;0.73;79.96;100380.09;4974967;28;20277;-69
2022/01/19 09:21:48;;;;;;;20.83;8.30;;;;;;;0.69;79.98;100366.38;4974811;28;20031;-69
2022/01/19 09:24:13;;;;;;;18.77;7.53;;;;;;;0.69;80.08;100355.88;4974979;28;20126;-70
2022/01/19 09:26:39;;;;;;;13.37;8.83;;;;;;;0.78;79.71;100365.69;4974901;28;20761;-70
2022/01/19 09:29:05;;;;;;;16.57;8.67;;;;;;;0.81;79.79;100370.72;4989835;28;20034;-69
2022/01/19 09:31:33;;;;;;;18.97;8.77;;;;;;;0.75;79.37;100370.31;4974683;28;20047;-68
2022/01/19 09:34:15;;;;;;;17.87;9.03;;;;;;;0.59;79.77;100354.88;4974679;28;20285;-70
2022/01/19 09:36:45;;;;;;;19.63;8.30;;;;;;;0.67;79.91;100359.56;4974999;28;20274;-69
2022/01/19 09:39:16;;;;;;;17.60;8.10;;;;;;;0.79;79.90;100351.63;4974884;28;20282;-70
2022/01/19 09:41:42;;;;;;;14.07;8.67;;;;;;;0.64;79.46;100342.28;4973469;28;20262;-70
2022/01/19 09:44:08;;;;;;;18.27;9.97;;;;;;;0.60;80.11;100325.09;4974923;28;20627;-70
2022/01/19 09:46:35;;;;;;;12.77;8.33;;;;;;;0.57;79.89;100314.81;4974395;28;20045;-70
2022/01/19 09:49:01;;;;;;;16.03;7.83;;;;;;;0.64;79.87;100330.94;4974567;28;20273;-69
2022/01/19 09:51:28;;;;;;;15.83;9.03;;;;;;;0.67;79.57;100330.72;4974704;28;20270;-69
2022/01/19 09:53:54;;;;;;;13.40;9.13;;;;;;;0.66;79.79;100340.38;4974456;28;20038;-68
2022/01/19 09:56:20;;;;;;;14.83;9.33;;;;;;;0.78;79.16;100360.44;4974477;28;20298;-69
2022/01/19 09:58:46;;;;;;;14.40;9.63;;;;;;;0.78;79.36;100339.47;4974023;28;20050;-70
2022/01/19 10:01:20;;;;;;;17.63;8.07;;;;;;;0.77;78.93;100348.28;4974138;28;20296;-69
2022/01/19 10:03:46;;;;;;;13.97;8.30;;;;;;;0.72;79.08;100334.69;4974402;28;20278;-68
2022/01/19 10:06:15;;;;;;;18.77;8.53;;;;;;;0.71;79.18;100337.41;4974170;28;20348;-68
2022/01/19 10:08:42;;;;;;;21.85;10.57;;;;;;;0.74;79.12;100345.91;4974422;28;20049;-72
2022/01/19 10:16:59;;;;;;;15.57;8.53;;;;;;;0.71;79.23;100337.41;4974271;28;20318;-69
2022/01/19 10:19:26;;;;;;;14.77;7.77;;;;;;;0.65;79.33;100330.84;4973818;28;20280;-70
2022/01/19 10:22:16;;;;;;;14.50;8.33;;;;;;;0.74;79.36;100340.66;4978314;28;20259;-72
2022/01/19 10:24:47;;;;;;;14.43;8.70;;;;;;;0.77;79.85;100335.19;4957539;28;20274;-70
2022/01/19 10:27:23;;;;;;;16.00;7.30;;;;;;;0.71;79.45;100316.44;4974993;28;20274;-69
2022/01/19 10:29:52;;;;;;;12.27;7.70;;;;;;;0.64;79.49;100313.44;4974140;28;20274;-70
2022/01/19 10:32:23;;;;;;;14.18;8.20;;;;;;;0.55;79.96;100311.47;4973894;28;20742;-69
2022/01/19 10:34:49;;;;;;;9.13;5.70;;;;;;;0.58;80.03;100314.72;4974833;28;20450;-73
2022/01/19 10:37:21;;;;;;;14.13;7.93;;;;;;;0.52;79.98;100301.19;4975147;28;20281;-70
2022/01/19 10:39:53;;;;;;;8.43;5.93;;;;;;;0.52;80.18;100311.69;4974629;28;20266;-71
2022/01/19 10:42:20;;;;;;;11.13;6.23;;;;;;;0.49;80.37;100299.63;4974821;28;20282;-70
2022/01/19 10:45:05;;;;;;;7.53;5.50;;;;;;;0.64;80.46;100305.59;4975426;28;20266;-70
2022/01/19 10:47:54;;;;;;;8.43;5.77;;;;;;;0.70;79.88;100310.38;4974029;28;20422;-70
2022/01/19 10:50:22;;;;;;;16.88;5.55;;;;;;;0.61;80.75;100300.56;4973906;28;20258;-71
2022/01/19 10:52:48;;;;;;;12.00;5.30;;;;;;;0.52;80.68;100301.19;4974132;28;20081;-69
2022/01/19 10:55:20;;;;;;;8.03;5.00;;;;;;;0.59;80.53;100321.63;4973340;28;20045;-69
2022/01/19 10:57:47;;;;;;;6.90;5.50;;;;;;;0.53;80.33;100297.63;4956226;28;20263;-69
2022/01/19 11:00:30;;;;;;;7.23;4.97;;;;;;;0.39;80.50;100275.06;4973436;28;20300;-70
2022/01/19 11:03:12;;;;;;;7.80;5.00;;;;;;;0.52;80.71;100288.94;4972145;28;20262;-69
2022/01/19 11:05:47;;;;;;;5.30;4.63;;;;;;;0.58;80.81;100283.28;4973064;28;20300;-68
2022/01/19 11:08:17;;;;;;;9.67;5.80;;;;;;;0.58;80.69;100258.84;4973509;28;20361;-68
2022/01/19 11:10:48;;;;;;;7.50;4.73;;;;;;;0.56;81.08;100255.50;4971089;28;20289;-68
2022/01/19 11:13:17;;;;;;;5.87;5.00;;;;;;;0.52;81.00;100226.06;4973373;28;20694;-69
2022/01/19 11:15:44;;;;;;;7.83;5.63;;;;;;;0.59;80.81;100219.44;4973029;28;20384;-69
2022/01/19 11:18:09;;;;;;;14.67;8.47;;;;;;;0.64;80.95;100215.66;4971809;28;20366;-70
2022/01/19 11:20:47;;;;;;;11.40;7.70;;;;;;;0.70;80.83;100220.44;4972120;28;20053;-68
2022/01/19 11:23:33;;;;;;;9.17;6.43;;;;;;;0.66;81.24;100209.34;4973899;28;20034;-69
2022/01/19 11:26:02;;;;;;;10.13;6.40;;;;;;;0.65;80.92;100202.44;4971896;28;20365;-71
2022/01/19 11:28:33;;;;;;;10.50;5.15;;;;;;;0.64;81.29;100195.50;4972049;28;20302;-68
2022/01/19 11:31:06;;;;;;;7.57;5.87;;;;;;;0.56;81.42;100188.19;4971728;28;20069;-72
2022/01/19 11:33:38;;;;;;;7.57;5.27;;;;;;;0.42;81.88;100163.97;4973208;28;20297;-68
2022/01/19 11:36:18;;;;;;;7.93;4.93;;;;;;;0.50;81.90;100172.09;4973063;28;20296;-71
2022/01/19 11:38:46;;;;;;;13.73;4.80;;;;;;;0.44;81.82;100169.94;4973209;28;20274;-69
2022/01/19 11:41:14;;;;;;;6.10;5.13;;;;;;;0.44;82.44;100183.88;4987825;28;20263;-69
2022/01/19 11:43:55;;;;;;;7.75;4.80;;;;;;;0.47;81.94;100193.28;4971959;28;20888;-71
2022/01/19 11:46:43;;;;;;;8.03;5.00;;;;;;;0.45;82.63;100179.47;4971332;28;20059;-71
2022/01/19 11:49:12;;;;;;;11.32;5.63;;;;;;;0.50;82.18;100172.09;4973344;28;20293;-68
2022/01/19 11:51:44;;;;;;;8.77;5.50;;;;;;;0.61;82.46;100180.03;4972815;28;20043;-66
2022/01/19 11:54:10;;;;;;;9.23;6.63;;;;;;;0.60;82.00;100165.25;4974103;28;20061;-72
2022/01/19 11:57:04;;;;;;;10.87;6.13;;;;;;;0.59;82.32;100184.53;4973044;28;20301;-69
2022/01/19 11:59:32;;;;;;;11.93;7.03;;;;;;;0.51;82.05;100153.66;4972514;28;20282;-67
2022/01/19 12:02:32;;;;;;;10.50;7.27;;;;;;;0.56;81.96;100151.50;4970927;28;20772;-67
2022/01/19 12:04:58;;;;;;;8.23;6.80;;;;;;;0.54;82.33;100132.44;4972569;28;20805;-66
2022/01/19 12:07:52;;;;;;;10.43;6.97;;;;;;;0.59;82.61;100134.75;4970872;28;20298;-68
2022/01/19 12:10:31;;;;;;;11.43;5.53;;;;;;;0.61;82.09;100133.69;4968996;28;20042;-66
2022/01/19 12:16:17;;;;;;;8.43;6.07;;;;;;;0.52;82.50;100131.72;4972201;28;20038;-69
2022/01/19 12:18:52;;;;;;;8.20;5.77;;;;;;;0.49;82.96;100118.88;4972398;28;20266;-69
2022/01/19 12:21:20;;;;;;;9.17;6.63;;;;;;;0.48;82.91;100132.91;4973287;28;20754;-65
2022/01/19 12:23:47;;;;;;;13.60;6.28;;;;;;;0.49;83.23;100123.28;4976235;28;20273;-64
2022/01/19 12:26:13;;;;;;;8.67;6.43;;;;;;;0.53;83.23;100103.75;4976243;28;20039;-66
2022/01/19 12:28:43;;;;;;;9.60;6.33;;;;;;;0.47;83.05;100084.09;4975918;28;20641;-69
2022/01/19 12:31:24;;;;;;;12.60;7.83;;;;;;;0.52;83.30;100078.50;4975558;28;20794;-68
2022/01/19 12:34:11;;;;;;;12.80;7.30;;;;;;;0.45;83.77;100056.34;4984550;28;20784;-70
2022/01/19 12:36:58;;;;;;;11.10;8.00;;;;;;;0.52;83.64;100070.63;4978013;28;20294;-66
2022/01/19 12:39:26;;;;;;;11.30;9.27;;;;;;;0.38;83.67;100032.41;4975448;28;20316;-69
2022/01/19 12:42:03;;;;;;;11.23;6.63;;;;;;;0.16;84.04;100012.22;4975578;28;20262;-75
2022/01/19 12:44:35;;;;;;;10.23;7.37;;;;;;;0.39;83.95;100054.19;4975477;28;20089;-69
2022/01/19 12:47:05;;;;;;;11.00;7.17;;;;;;;0.40;84.31;100051.44;4975908;28;20676;-69
2022/01/19 12:49:32;;;;;;;10.23;7.87;;;;;;;0.37;84.29;100032.50;4975819;28;20274;-66
2022/01/19 12:51:59;;;;;;;7.77;6.77;;;;;;;0.46;84.41;100039.66;4973921;28;20328;-69
2022/01/19 12:54:29;;;;;;;7.50;6.27;;;;;;;0.45;84.11;100043.25;4975298;28;20281;-70
2022/01/19 12:57:02;;;;;;;10.23;7.57;;;;;;;0.38;84.22;100008.00;4975361;28;20262;-70
2022/01/19 12:59:31;;;;;;;12.43;7.57;;;;;;;0.49;84.44;100008.00;4975672;28;20265;-70